sensor_id;sensor_type;location;lat;lon;timestamp;pressure;altitude;pressure_sealevel;temperature;humidity
73651;BME280;61944;52.538;6.108;2023-05-29T00:01:56;102330.47;;;13.28;83.12
73651;BME280;61944;52.538;6.108;2023-05-29T00:04:22;102342.41;;;13.37;82.68
73651;BME280;61944;52.538;6.108;2023-05-29T00:06:47;102346.03;;;13.53;81.56
73651;BME280;61944;52.538;6.108;2023-05-29T00:09:13;102344.84;;;13.38;81.99
73651;BME280;61944;52.538;6.108;2023-05-29T00:11:38;102347.41;;;13.44;81.54
73651;BME280;61944;52.538;6.108;2023-05-29T00:14:05;102350.88;;;13.25;82.33
73651;BME280;61944;52.538;6.108;2023-05-29T00:16:30;102352.81;;;13.36;81.37
73651;BME280;61944;52.538;6.108;2023-05-29T00:18:56;102360.84;;;13.50;80.19
73651;BME280;61944;52.538;6.108;2023-05-29T00:21:23;102351.91;;;13.32;81.56
73651;BME280;61944;52.538;6.108;2023-05-29T00:23:48;102344.66;;;13.31;81.38
73651;BME280;61944;52.538;6.108;2023-05-29T00:26:13;102354.19;;;13.42;80.01
73651;BME280;61944;52.538;6.108;2023-05-29T00:28:42;102353.44;;;13.30;80.45
73651;BME280;61944;52.538;6.108;2023-05-29T00:31:07;102358.38;;;13.33;80.00
73651;BME280;61944;52.538;6.108;2023-05-29T00:33:33;102361.88;;;13.30;80.74
73651;BME280;61944;52.538;6.108;2023-05-29T00:35:58;102359.78;;;13.27;80.69
73651;BME280;61944;52.538;6.108;2023-05-29T00:38:24;102357.84;;;13.43;79.59
73651;BME280;61944;52.538;6.108;2023-05-29T00:40:49;102347.63;;;13.22;80.88
73651;BME280;61944;52.538;6.108;2023-05-29T00:43:14;102354.28;;;13.02;81.35
73651;BME280;61944;52.538;6.108;2023-05-29T00:45:40;102345.78;;;13.14;80.53
73651;BME280;61944;52.538;6.108;2023-05-29T00:48:06;102349.97;;;13.20;80.16
73651;BME280;61944;52.538;6.108;2023-05-29T00:50:32;102351.22;;;12.79;82.54
73651;BME280;61944;52.538;6.108;2023-05-29T00:53:00;102353.16;;;12.91;81.52
73651;BME280;61944;52.538;6.108;2023-05-29T00:55:29;102360.13;;;13.09;80.79
73651;BME280;61944;52.538;6.108;2023-05-29T00:57:54;102355.09;;;13.02;80.98
73651;BME280;61944;52.538;6.108;2023-05-29T01:00:20;102361.72;;;12.54;83.74
73651;BME280;61944;52.538;6.108;2023-05-29T01:02:46;102356.28;;;12.73;82.28
73651;BME280;61944;52.538;6.108;2023-05-29T01:05:13;102360.34;;;12.88;81.49
73651;BME280;61944;52.538;6.108;2023-05-29T01:07:38;102352.25;;;12.87;81.54
73651;BME280;61944;52.538;6.108;2023-05-29T01:10:08;102361.53;;;12.75;82.20
73651;BME280;61944;52.538;6.108;2023-05-29T01:12:48;102367.97;;;12.75;81.86
73651;BME280;61944;52.538;6.108;2023-05-29T01:20:33;102361.34;;;12.68;81.79
73651;BME280;61944;52.538;6.108;2023-05-29T01:26:02;102360.47;;;12.39;83.42
73651;BME280;61944;52.538;6.108;2023-05-29T01:28:41;102369.22;;;12.50;82.64
73651;BME280;61944;52.538;6.108;2023-05-29T01:31:09;102377.41;;;12.55;82.38
73651;BME280;61944;52.538;6.108;2023-05-29T01:33:38;102378.03;;;12.48;82.79
73651;BME280;61944;52.538;6.108;2023-05-29T01:36:05;102388.66;;;12.43;83.48
73651;BME280;61944;52.538;6.108;2023-05-29T01:38:31;102384.31;;;12.57;82.17
73651;BME280;61944;52.538;6.108;2023-05-29T01:40:57;102388.78;;;12.46;82.41
73651;BME280;61944;52.538;6.108;2023-05-29T01:43:23;102397.75;;;12.64;81.44
73651;BME280;61944;52.538;6.108;2023-05-29T01:45:50;102398.22;;;12.54;81.79
73651;BME280;61944;52.538;6.108;2023-05-29T01:48:16;102397.53;;;12.57;81.78
73651;BME280;61944;52.538;6.108;2023-05-29T01:50:42;102401.75;;;12.51;81.81
73651;BME280;61944;52.538;6.108;2023-05-29T01:53:09;102407.13;;;12.56;81.67
73651;BME280;61944;52.538;6.108;2023-05-29T01:55:35;102400.97;;;12.38;82.67
73651;BME280;61944;52.538;6.108;2023-05-29T01:58:00;102399.69;;;12.23;83.34
73651;BME280;61944;52.538;6.108;2023-05-29T02:00:26;102402.59;;;12.39;82.22
73651;BME280;61944;52.538;6.108;2023-05-29T02:02:52;102399.44;;;12.28;83.24
73651;BME280;61944;52.538;6.108;2023-05-29T02:05:17;102403.44;;;12.27;82.95
73651;BME280;61944;52.538;6.108;2023-05-29T02:07:42;102406.59;;;12.26;83.20
73651;BME280;61944;52.538;6.108;2023-05-29T02:10:08;102405.19;;;12.32;82.24
73651;BME280;61944;52.538;6.108;2023-05-29T02:12:34;102404.38;;;12.31;82.12
73651;BME280;61944;52.538;6.108;2023-05-29T02:14:59;102388.22;;;12.04;83.96
73651;BME280;61944;52.538;6.108;2023-05-29T02:17:24;102384.72;;;12.19;82.90
73651;BME280;61944;52.538;6.108;2023-05-29T02:19:50;102399.31;;;12.25;82.65
73651;BME280;61944;52.538;6.108;2023-05-29T02:22:17;102392.44;;;12.22;82.36
73651;BME280;61944;52.538;6.108;2023-05-29T02:24:42;102392.69;;;12.29;82.05
73651;BME280;61944;52.538;6.108;2023-05-29T02:27:08;102390.22;;;12.15;82.81
73651;BME280;61944;52.538;6.108;2023-05-29T02:29:34;102386.72;;;12.06;82.77
73651;BME280;61944;52.538;6.108;2023-05-29T02:31:59;102391.75;;;12.00;83.33
73651;BME280;61944;52.538;6.108;2023-05-29T02:34:25;102394.09;;;12.11;82.74
73651;BME280;61944;52.538;6.108;2023-05-29T02:36:51;102388.59;;;12.02;83.06
73651;BME280;61944;52.538;6.108;2023-05-29T02:39:20;102393.41;;;11.89;83.93
73651;BME280;61944;52.538;6.108;2023-05-29T02:41:45;102398.44;;;12.08;82.52
73651;BME280;61944;52.538;6.108;2023-05-29T02:44:11;102408.47;;;12.09;82.71
73651;BME280;61944;52.538;6.108;2023-05-29T02:46:36;102405.28;;;11.86;84.38
73651;BME280;61944;52.538;6.108;2023-05-29T02:49:02;102410.69;;;11.91;83.36
73651;BME280;61944;52.538;6.108;2023-05-29T02:51:27;102404.84;;;11.96;83.00
73651;BME280;61944;52.538;6.108;2023-05-29T02:53:53;102401.69;;;11.98;82.64
73651;BME280;61944;52.538;6.108;2023-05-29T02:56:18;102405.38;;;11.77;84.35
73651;BME280;61944;52.538;6.108;2023-05-29T02:58:51;102410.88;;;11.86;83.37
73651;BME280;61944;52.538;6.108;2023-05-29T03:01:17;102404.97;;;12.00;82.57
73651;BME280;61944;52.538;6.108;2023-05-29T03:03:42;102402.28;;;11.91;82.75
73651;BME280;61944;52.538;6.108;2023-05-29T03:06:08;102408.56;;;11.88;83.18
73651;BME280;61944;52.538;6.108;2023-05-29T03:08:35;102403.66;;;11.85;82.89
73651;BME280;61944;52.538;6.108;2023-05-29T03:11:05;102400.13;;;11.76;83.59
73651;BME280;61944;52.538;6.108;2023-05-29T03:13:30;102405.28;;;11.86;82.99
73651;BME280;61944;52.538;6.108;2023-05-29T03:15:59;102393.56;;;11.72;83.61
73651;BME280;61944;52.538;6.108;2023-05-29T03:18:24;102397.56;;;11.83;83.09
73651;BME280;61944;52.538;6.108;2023-05-29T03:20:50;102397.56;;;11.71;84.01
73651;BME280;61944;52.538;6.108;2023-05-29T03:23:15;102396.72;;;11.83;82.56
73651;BME280;61944;52.538;6.108;2023-05-29T03:25:41;102390.53;;;11.65;83.15
73651;BME280;61944;52.538;6.108;2023-05-29T03:28:06;102389.59;;;11.73;83.58
73651;BME280;61944;52.538;6.108;2023-05-29T03:30:31;102392.16;;;11.66;83.17
73651;BME280;61944;52.538;6.108;2023-05-29T03:32:57;102391.00;;;11.67;83.47
73651;BME280;61944;52.538;6.108;2023-05-29T03:35:28;102393.91;;;11.58;84.22
73651;BME280;61944;52.538;6.108;2023-05-29T03:37:53;102393.34;;;11.65;83.05
73651;BME280;61944;52.538;6.108;2023-05-29T03:40:19;102385.81;;;11.44;84.57
73651;BME280;61944;52.538;6.108;2023-05-29T03:42:44;102392.16;;;11.53;84.03
73651;BME280;61944;52.538;6.108;2023-05-29T03:45:10;102390.88;;;11.63;83.20
73651;BME280;61944;52.538;6.108;2023-05-29T03:47:35;102388.16;;;11.54;83.50
73651;BME280;61944;52.538;6.108;2023-05-29T03:50:01;102392.03;;;11.62;83.50
73651;BME280;61944;52.538;6.108;2023-05-29T03:52:27;102397.53;;;11.58;83.36
73651;BME280;61944;52.538;6.108;2023-05-29T03:54:52;102388.31;;;11.70;82.73
73651;BME280;61944;52.538;6.108;2023-05-29T03:57:17;102405.81;;;11.55;84.09
73651;BME280;61944;52.538;6.108;2023-05-29T03:59:43;102401.88;;;11.68;83.15
73651;BME280;61944;52.538;6.108;2023-05-29T04:02:08;102409.22;;;11.60;84.24
73651;BME280;61944;52.538;6.108;2023-05-29T04:04:33;102410.88;;;11.62;83.67
73651;BME280;61944;52.538;6.108;2023-05-29T04:06:59;102407.69;;;11.63;83.95
73651;BME280;61944;52.538;6.108;2023-05-29T04:09:24;102414.13;;;11.64;83.39
73651;BME280;61944;52.538;6.108;2023-05-29T04:11:50;102415.59;;;11.49;84.00
73651;BME280;61944;52.538;6.108;2023-05-29T04:14:17;102422.69;;;11.34;84.81
73651;BME280;61944;52.538;6.108;2023-05-29T04:16:42;102427.44;;;11.54;84.35
73651;BME280;61944;52.538;6.108;2023-05-29T04:19:08;102435.88;;;11.67;83.16
73651;BME280;61944;52.538;6.108;2023-05-29T04:21:33;102437.25;;;11.60;83.51
73651;BME280;61944;52.538;6.108;2023-05-29T04:23:59;102440.72;;;11.45;85.29
73651;BME280;61944;52.538;6.108;2023-05-29T04:26:25;102442.25;;;11.43;85.17
73651;BME280;61944;52.538;6.108;2023-05-29T04:28:52;102443.75;;;11.40;85.02
73651;BME280;61944;52.538;6.108;2023-05-29T04:31:25;102442.78;;;11.36;85.45
73651;BME280;61944;52.538;6.108;2023-05-29T04:33:52;102453.03;;;11.19;86.36
73651;BME280;61944;52.538;6.108;2023-05-29T04:36:26;102445.63;;;11.48;84.23
73651;BME280;61944;52.538;6.108;2023-05-29T04:38:54;102450.22;;;11.19;86.16
73651;BME280;61944;52.538;6.108;2023-05-29T04:41:20;102455.78;;;11.41;84.73
73651;BME280;61944;52.538;6.108;2023-05-29T04:43:49;102449.28;;;11.15;86.23
73651;BME280;61944;52.538;6.108;2023-05-29T04:46:16;102457.97;;;11.35;85.52
73651;BME280;61944;52.538;6.108;2023-05-29T04:48:41;102452.81;;;11.25;85.47
73651;BME280;61944;52.538;6.108;2023-05-29T04:51:07;102456.69;;;11.32;84.97
73651;BME280;61944;52.538;6.108;2023-05-29T04:53:37;102446.97;;;11.30;85.53
73651;BME280;61944;52.538;6.108;2023-05-29T04:56:02;102457.50;;;11.33;86.37
73651;BME280;61944;52.538;6.108;2023-05-29T04:58:28;102452.81;;;11.25;87.30
73651;BME280;61944;52.538;6.108;2023-05-29T05:00:53;102462.22;;;11.41;84.79
73651;BME280;61944;52.538;6.108;2023-05-29T05:03:22;102451.28;;;11.27;87.12
73651;BME280;61944;52.538;6.108;2023-05-29T05:05:49;102451.38;;;11.52;84.42
73651;BME280;61944;52.538;6.108;2023-05-29T05:08:15;102462.25;;;11.66;83.30
73651;BME280;61944;52.538;6.108;2023-05-29T05:10:41;102460.84;;;11.47;85.82
73651;BME280;61944;52.538;6.108;2023-05-29T05:13:06;102468.50;;;11.38;86.59
73651;BME280;61944;52.538;6.108;2023-05-29T05:15:32;102463.97;;;11.46;85.63
73651;BME280;61944;52.538;6.108;2023-05-29T05:17:58;102465.53;;;11.22;89.05
73651;BME280;61944;52.538;6.108;2023-05-29T05:20:23;102463.28;;;11.49;84.88
73651;BME280;61944;52.538;6.108;2023-05-29T05:22:48;102471.25;;;11.59;85.00
73651;BME280;61944;52.538;6.108;2023-05-29T05:25:13;102470.16;;;11.39;85.71
73651;BME280;61944;52.538;6.108;2023-05-29T05:27:39;102475.00;;;11.63;84.49
73651;BME280;61944;52.538;6.108;2023-05-29T05:30:05;102478.47;;;11.48;85.19
73651;BME280;61944;52.538;6.108;2023-05-29T05:32:32;102479.09;;;11.66;84.63
73651;BME280;61944;52.538;6.108;2023-05-29T05:34:57;102480.84;;;11.25;88.14
73651;BME280;61944;52.538;6.108;2023-05-29T05:37:23;102485.31;;;11.71;84.46
73651;BME280;61944;52.538;6.108;2023-05-29T05:39:49;102478.03;;;11.58;87.16
73651;BME280;61944;52.538;6.108;2023-05-29T05:42:15;102475.16;;;11.67;85.50
73651;BME280;61944;52.538;6.108;2023-05-29T05:44:41;102482.50;;;11.71;85.92
73651;BME280;61944;52.538;6.108;2023-05-29T05:47:06;102479.22;;;11.69;85.68
73651;BME280;61944;52.538;6.108;2023-05-29T05:49:31;102474.56;;;11.40;88.09
73651;BME280;61944;52.538;6.108;2023-05-29T05:51:57;102468.78;;;11.45;88.91
73651;BME280;61944;52.538;6.108;2023-05-29T05:54:22;102473.25;;;11.58;88.24
73651;BME280;61944;52.538;6.108;2023-05-29T05:56:47;102471.31;;;11.38;88.95
73651;BME280;61944;52.538;6.108;2023-05-29T05:59:13;102468.59;;;11.63;86.75
73651;BME280;61944;52.538;6.108;2023-05-29T06:01:38;102474.09;;;11.71;86.24
73651;BME280;61944;52.538;6.108;2023-05-29T06:04:06;102469.06;;;11.10;91.88
73651;BME280;61944;52.538;6.108;2023-05-29T06:06:32;102479.28;;;11.48;87.95
73651;BME280;61944;52.538;6.108;2023-05-29T06:08:57;102476.16;;;11.50;89.82
73651;BME280;61944;52.538;6.108;2023-05-29T06:11:23;102478.84;;;11.58;86.89
73651;BME280;61944;52.538;6.108;2023-05-29T06:13:51;102463.13;;;11.66;87.11
73651;BME280;61944;52.538;6.108;2023-05-29T06:16:17;102479.09;;;11.66;85.99
73651;BME280;61944;52.538;6.108;2023-05-29T06:18:43;102473.31;;;11.83;86.29
73651;BME280;61944;52.538;6.108;2023-05-29T06:21:09;102477.00;;;11.63;86.00
73651;BME280;61944;52.538;6.108;2023-05-29T06:23:35;102476.00;;;11.46;85.83
73651;BME280;61944;52.538;6.108;2023-05-29T06:26:02;102485.06;;;11.97;83.50
73651;BME280;61944;52.538;6.108;2023-05-29T06:28:28;102494.06;;;11.57;85.20
73651;BME280;61944;52.538;6.108;2023-05-29T06:30:54;102476.91;;;11.38;85.95
73651;BME280;61944;52.538;6.108;2023-05-29T06:33:19;102484.22;;;11.51;85.17
73651;BME280;61944;52.538;6.108;2023-05-29T06:35:46;102478.47;;;11.48;84.10
73651;BME280;61944;52.538;6.108;2023-05-29T06:38:12;102483.31;;;11.72;84.37
73651;BME280;61944;52.538;6.108;2023-05-29T06:40:37;102487.41;;;11.95;82.93
73651;BME280;61944;52.538;6.108;2023-05-29T06:43:02;102486.03;;;11.68;85.06
73651;BME280;61944;52.538;6.108;2023-05-29T06:45:28;102492.44;;;12.02;82.13
73651;BME280;61944;52.538;6.108;2023-05-29T06:47:53;102491.41;;;11.73;84.33
73651;BME280;61944;52.538;6.108;2023-05-29T06:50:20;102495.69;;;11.92;83.50
73651;BME280;61944;52.538;6.108;2023-05-29T06:52:45;102506.56;;;11.93;82.18
73651;BME280;61944;52.538;6.108;2023-05-29T06:55:11;102504.47;;;12.03;81.64
73651;BME280;61944;52.538;6.108;2023-05-29T06:57:36;102502.50;;;12.15;82.16
73651;BME280;61944;52.538;6.108;2023-05-29T07:00:03;102504.97;;;12.17;81.72
73651;BME280;61944;52.538;6.108;2023-05-29T07:02:30;102511.63;;;12.37;79.86
73651;BME280;61944;52.538;6.108;2023-05-29T07:04:56;102512.00;;;12.23;80.24
73651;BME280;61944;52.538;6.108;2023-05-29T07:07:21;102515.72;;;12.15;79.44
73651;BME280;61944;52.538;6.108;2023-05-29T07:09:46;102509.28;;;12.27;80.20
73651;BME280;61944;52.538;6.108;2023-05-29T07:12:12;102516.19;;;12.41;78.90
73651;BME280;61944;52.538;6.108;2023-05-29T07:14:37;102516.56;;;12.28;79.54
73651;BME280;61944;52.538;6.108;2023-05-29T07:17:03;102511.03;;;12.44;79.36
73651;BME280;61944;52.538;6.108;2023-05-29T07:19:28;102520.19;;;12.53;78.87
73651;BME280;61944;52.538;6.108;2023-05-29T07:21:54;102515.97;;;12.59;78.38
73651;BME280;61944;52.538;6.108;2023-05-29T07:24:20;102514.44;;;12.49;78.31
73651;BME280;61944;52.538;6.108;2023-05-29T07:26:45;102521.94;;;12.70;78.18
73651;BME280;61944;52.538;6.108;2023-05-29T07:29:10;102514.53;;;12.77;77.54
73651;BME280;61944;52.538;6.108;2023-05-29T07:31:37;102518.78;;;12.71;78.04
73651;BME280;61944;52.538;6.108;2023-05-29T07:34:05;102520.63;;;12.79;76.65
73651;BME280;61944;52.538;6.108;2023-05-29T07:36:31;102518.97;;;13.03;75.99
73651;BME280;61944;52.538;6.108;2023-05-29T07:38:57;102516.06;;;12.63;75.36
73651;BME280;61944;52.538;6.108;2023-05-29T07:41:23;102514.66;;;12.81;76.28
73651;BME280;61944;52.538;6.108;2023-05-29T07:43:48;102518.69;;;13.20;75.53
73651;BME280;61944;52.538;6.108;2023-05-29T07:46:17;102527.25;;;13.12;74.89
73651;BME280;61944;52.538;6.108;2023-05-29T07:48:43;102517.75;;;13.16;75.56
73651;BME280;61944;52.538;6.108;2023-05-29T07:51:08;102518.25;;;13.06;75.80
73651;BME280;61944;52.538;6.108;2023-05-29T07:53:35;102521.88;;;13.07;76.28
73651;BME280;61944;52.538;6.108;2023-05-29T07:56:01;102521.31;;;13.01;75.82
73651;BME280;61944;52.538;6.108;2023-05-29T07:58:26;102524.22;;;13.05;75.56
73651;BME280;61944;52.538;6.108;2023-05-29T08:00:52;102526.06;;;13.13;75.41
73651;BME280;61944;52.538;6.108;2023-05-29T08:03:18;102529.91;;;13.20;74.26
73651;BME280;61944;52.538;6.108;2023-05-29T08:05:43;102533.91;;;13.19;74.66
73651;BME280;61944;52.538;6.108;2023-05-29T08:08:10;102529.00;;;13.16;73.09
73651;BME280;61944;52.538;6.108;2023-05-29T08:10:38;102526.38;;;13.36;73.37
73651;BME280;61944;52.538;6.108;2023-05-29T08:13:03;102531.50;;;13.46;72.16
73651;BME280;61944;52.538;6.108;2023-05-29T08:15:29;102527.22;;;13.65;73.55
73651;BME280;61944;52.538;6.108;2023-05-29T08:17:54;102538.06;;;13.50;72.60
73651;BME280;61944;52.538;6.108;2023-05-29T08:20:19;102530.81;;;13.49;71.71
73651;BME280;61944;52.538;6.108;2023-05-29T08:22:45;102532.16;;;13.55;72.00
73651;BME280;61944;52.538;6.108;2023-05-29T08:25:11;102528.84;;;13.25;73.49
73651;BME280;61944;52.538;6.108;2023-05-29T08:27:36;102530.53;;;13.54;72.47
73651;BME280;61944;52.538;6.108;2023-05-29T08:30:03;102536.19;;;13.42;72.09
73651;BME280;61944;52.538;6.108;2023-05-29T08:32:28;102532.94;;;13.68;72.42
73651;BME280;61944;52.538;6.108;2023-05-29T08:34:54;102536.75;;;13.76;71.25
73651;BME280;61944;52.538;6.108;2023-05-29T08:37:19;102534.13;;;13.67;70.04
73651;BME280;61944;52.538;6.108;2023-05-29T08:39:45;102542.84;;;13.78;70.93
73651;BME280;61944;52.538;6.108;2023-05-29T08:42:13;102539.50;;;13.88;69.72
73651;BME280;61944;52.538;6.108;2023-05-29T08:44:43;102537.22;;;13.78;70.49
73651;BME280;61944;52.538;6.108;2023-05-29T08:47:13;102535.97;;;13.91;70.86
73651;BME280;61944;52.538;6.108;2023-05-29T08:49:43;102542.84;;;14.38;70.41
73651;BME280;61944;52.538;6.108;2023-05-29T08:52:18;102542.09;;;14.41;70.43
73651;BME280;61944;52.538;6.108;2023-05-29T08:54:45;102532.28;;;14.35;67.43
73651;BME280;61944;52.538;6.108;2023-05-29T08:57:11;102529.53;;;14.54;70.27
73651;BME280;61944;52.538;6.108;2023-05-29T08:59:43;102533.28;;;14.74;67.52
73651;BME280;61944;52.538;6.108;2023-05-29T09:02:10;102549.38;;;14.74;68.58
73651;BME280;61944;52.538;6.108;2023-05-29T09:04:41;102545.19;;;14.36;66.45
73651;BME280;61944;52.538;6.108;2023-05-29T09:07:07;102537.47;;;14.49;67.17
73651;BME280;61944;52.538;6.108;2023-05-29T09:09:33;102533.91;;;14.52;64.96
73651;BME280;61944;52.538;6.108;2023-05-29T09:11:59;102537.47;;;14.49;68.01
73651;BME280;61944;52.538;6.108;2023-05-29T09:14:33;102541.09;;;14.65;64.73
73651;BME280;61944;52.538;6.108;2023-05-29T09:17:02;102542.19;;;14.60;65.62
73651;BME280;61944;52.538;6.108;2023-05-29T09:19:28;102544.56;;;14.58;66.55
73651;BME280;61944;52.538;6.108;2023-05-29T09:22:03;102544.25;;;14.79;65.96
73651;BME280;61944;52.538;6.108;2023-05-29T09:24:29;102547.00;;;15.11;65.96
73651;BME280;61944;52.538;6.108;2023-05-29T09:26:55;102546.31;;;14.98;66.08
73651;BME280;61944;52.538;6.108;2023-05-29T09:29:21;102550.81;;;14.83;67.06
73651;BME280;61944;52.538;6.108;2023-05-29T09:31:47;102544.25;;;14.95;66.66
73651;BME280;61944;52.538;6.108;2023-05-29T09:34:13;102544.91;;;14.89;63.94
73651;BME280;61944;52.538;6.108;2023-05-29T09:36:39;102543.09;;;14.80;63.85
73651;BME280;61944;52.538;6.108;2023-05-29T09:39:04;102544.63;;;15.13;64.73
73651;BME280;61944;52.538;6.108;2023-05-29T09:41:40;102539.44;;;15.15;62.30
73651;BME280;61944;52.538;6.108;2023-05-29T09:44:06;102543.47;;;15.34;65.80
73651;BME280;61944;52.538;6.108;2023-05-29T09:46:35;102546.06;;;15.42;65.05
73651;BME280;61944;52.538;6.108;2023-05-29T09:49:16;102540.94;;;15.29;61.77
73651;BME280;61944;52.538;6.108;2023-05-29T09:51:47;102527.91;;;15.04;61.70
73651;BME280;61944;52.538;6.108;2023-05-29T09:54:17;102548.78;;;15.19;63.66
73651;BME280;61944;52.538;6.108;2023-05-29T09:56:44;102540.78;;;15.21;61.10
73651;BME280;61944;52.538;6.108;2023-05-29T09:59:11;102532.41;;;15.44;61.59
73651;BME280;61944;52.538;6.108;2023-05-29T10:01:39;102535.00;;;15.53;61.87
73651;BME280;61944;52.538;6.108;2023-05-29T10:04:05;102540.81;;;15.60;61.35
73651;BME280;61944;52.538;6.108;2023-05-29T10:06:31;102530.56;;;15.52;61.08
73651;BME280;61944;52.538;6.108;2023-05-29T10:08:58;102535.97;;;15.80;60.99
73651;BME280;61944;52.538;6.108;2023-05-29T10:11:26;102530.34;;;16.03;60.47
73651;BME280;61944;52.538;6.108;2023-05-29T10:13:54;102534.72;;;15.78;61.67
73651;BME280;61944;52.538;6.108;2023-05-29T10:16:22;102536.22;;;15.72;60.56
73651;BME280;61944;52.538;6.108;2023-05-29T10:18:54;102531.75;;;15.71;59.85
73651;BME280;61944;52.538;6.108;2023-05-29T10:21:28;102542.97;;;16.10;59.39
73651;BME280;61944;52.538;6.108;2023-05-29T10:23:54;102533.00;;;16.16;60.59
73651;BME280;61944;52.538;6.108;2023-05-29T10:26:24;102527.09;;;16.24;65.17
73651;BME280;61944;52.538;6.108;2023-05-29T10:35:09;102517.88;;;16.28;60.63
73651;BME280;61944;52.538;6.108;2023-05-29T10:37:59;102524.91;;;16.64;58.96
73651;BME280;61944;52.538;6.108;2023-05-29T10:40:28;102526.16;;;16.66;59.03
73651;BME280;61944;52.538;6.108;2023-05-29T10:42:53;102532.09;;;16.58;57.34
73651;BME280;61944;52.538;6.108;2023-05-29T10:47:55;102522.38;;;16.55;56.55
73651;BME280;61944;52.538;6.108;2023-05-29T10:50:37;102516.56;;;16.98;55.77
73651;BME280;61944;52.538;6.108;2023-05-29T10:53:10;102519.16;;;17.10;58.10
73651;BME280;61944;52.538;6.108;2023-05-29T10:55:40;102528.44;;;17.41;56.06
73651;BME280;61944;52.538;6.108;2023-05-29T10:58:15;102516.50;;;16.94;55.28
73651;BME280;61944;52.538;6.108;2023-05-29T11:00:44;102517.66;;;17.20;55.21
73651;BME280;61944;52.538;6.108;2023-05-29T11:03:14;102512.63;;;17.06;56.16
73651;BME280;61944;52.538;6.108;2023-05-29T11:06:03;102516.38;;;17.47;56.57
73651;BME280;61944;52.538;6.108;2023-05-29T11:08:55;102510.44;;;17.56;56.85
73651;BME280;61944;52.538;6.108;2023-05-29T11:13:53;102525.16;;;17.39;55.55
73651;BME280;61944;52.538;6.108;2023-05-29T11:16:36;102514.06;;;17.57;55.25
73651;BME280;61944;52.538;6.108;2023-05-29T11:19:07;102531.50;;;17.62;54.69
73651;BME280;61944;52.538;6.108;2023-05-29T11:21:58;102519.81;;;17.00;57.04
73651;BME280;61944;52.538;6.108;2023-05-29T11:24:28;102511.63;;;17.55;55.56
73651;BME280;61944;52.538;6.108;2023-05-29T11:26:55;102528.69;;;17.62;54.29
73651;BME280;61944;52.538;6.108;2023-05-29T11:29:22;102521.22;;;17.43;54.43
73651;BME280;61944;52.538;6.108;2023-05-29T11:31:49;102522.22;;;17.62;54.05
73651;BME280;61944;52.538;6.108;2023-05-29T11:34:20;102532.28;;;17.93;55.00
73651;BME280;61944;52.538;6.108;2023-05-29T11:36:46;102526.63;;;17.59;51.34
73651;BME280;61944;52.538;6.108;2023-05-29T11:39:14;102535.81;;;17.83;53.94
73651;BME280;61944;52.538;6.108;2023-05-29T11:41:39;102533.63;;;18.06;54.32
73651;BME280;61944;52.538;6.108;2023-05-29T11:44:05;102523.44;;;17.61;54.86
73651;BME280;61944;52.538;6.108;2023-05-29T11:46:33;102530.63;;;17.88;53.71
73651;BME280;61944;52.538;6.108;2023-05-29T11:49:00;102528.78;;;17.70;53.24
73651;BME280;61944;52.538;6.108;2023-05-29T11:51:26;102527.00;;;17.88;51.15
73651;BME280;61944;52.538;6.108;2023-05-29T11:53:51;102526.25;;;17.61;52.10
73651;BME280;61944;52.538;6.108;2023-05-29T11:56:24;102538.03;;;18.00;52.07
73651;BME280;61944;52.538;6.108;2023-05-29T11:58:50;102527.69;;;18.19;52.45
73651;BME280;61944;52.538;6.108;2023-05-29T12:01:16;102523.56;;;18.13;49.83
73651;BME280;61944;52.538;6.108;2023-05-29T12:03:43;102526.34;;;18.05;53.89
73651;BME280;61944;52.538;6.108;2023-05-29T12:06:09;102518.84;;;18.27;50.07
73651;BME280;61944;52.538;6.108;2023-05-29T12:08:36;102524.38;;;18.58;47.85
73651;BME280;61944;52.538;6.108;2023-05-29T12:11:02;102524.66;;;18.42;48.28
73651;BME280;61944;52.538;6.108;2023-05-29T12:13:27;102518.22;;;18.48;50.23
73651;BME280;61944;52.538;6.108;2023-05-29T12:15:56;102517.88;;;18.54;52.47
73651;BME280;61944;52.538;6.108;2023-05-29T12:18:22;102519.56;;;18.14;52.29
73651;BME280;61944;52.538;6.108;2023-05-29T12:20:48;102529.41;;;18.82;47.80
73651;BME280;61944;52.538;6.108;2023-05-29T12:23:13;102507.78;;;18.60;49.11
73651;BME280;61944;52.538;6.108;2023-05-29T12:25:39;102529.03;;;18.84;50.95
73651;BME280;61944;52.538;6.108;2023-05-29T12:28:05;102522.06;;;18.22;49.44
73651;BME280;61944;52.538;6.108;2023-05-29T12:30:30;102507.66;;;18.45;49.35
73651;BME280;61944;52.538;6.108;2023-05-29T12:32:56;102511.06;;;18.69;51.16
73651;BME280;61944;52.538;6.108;2023-05-29T12:35:24;102503.41;;;18.73;52.04
73651;BME280;61944;52.538;6.108;2023-05-29T12:40:20;102509.63;;;18.34;50.99
73651;BME280;61944;52.538;6.108;2023-05-29T12:42:59;102509.19;;;18.84;52.52
73651;BME280;61944;52.538;6.108;2023-05-29T12:45:26;102515.00;;;19.09;51.34
73651;BME280;61944;52.538;6.108;2023-05-29T12:47:59;102508.72;;;18.78;51.65
73651;BME280;61944;52.538;6.108;2023-05-29T12:50:32;102514.97;;;19.02;50.03
73651;BME280;61944;52.538;6.108;2023-05-29T12:53:10;102521.09;;;19.18;52.86
73651;BME280;61944;52.538;6.108;2023-05-29T12:55:42;102511.13;;;19.60;46.22
73651;BME280;61944;52.538;6.108;2023-05-29T12:58:09;102518.88;;;19.67;47.59
73651;BME280;61944;52.538;6.108;2023-05-29T13:00:37;102509.81;;;19.25;49.37
73651;BME280;61944;52.538;6.108;2023-05-29T13:03:03;102522.94;;;19.66;48.22
73651;BME280;61944;52.538;6.108;2023-05-29T13:05:29;102515.56;;;19.54;49.70
73651;BME280;61944;52.538;6.108;2023-05-29T13:07:54;102508.66;;;19.41;45.70
73651;BME280;61944;52.538;6.108;2023-05-29T13:10:20;102519.78;;;19.93;46.67
73651;BME280;61944;52.538;6.108;2023-05-29T13:12:47;102518.91;;;19.70;43.75